sensor_id;sensor_type;location;lat;lon;timestamp;temperature;humidity
15967;DHT22;15175;48.154;11.534;2023-02-28T00:00:37;-0.60;99.90
15967;DHT22;15175;48.154;11.534;2023-02-28T00:03:05;-0.60;99.90
15967;DHT22;15175;48.154;11.534;2023-02-28T00:05:34;-0.70;99.90
15967;DHT22;15175;48.154;11.534;2023-02-28T00:08:01;-0.70;99.90
15967;DHT22;15175;48.154;11.534;2023-02-28T00:10:30;-0.70;99.90
15967;DHT22;15175;48.154;11.534;2023-02-28T00:13:02;-0.70;99.90
15967;DHT22;15175;48.154;11.534;2023-02-28T00:15:30;-0.70;99.90
15967;DHT22;15175;48.154;11.534;2023-02-28T00:17:57;-0.80;99.90
15967;DHT22;15175;48.154;11.534;2023-02-28T00:20:25;-0.80;99.90
15967;DHT22;15175;48.154;11.534;2023-02-28T00:22:53;-0.80;99.90
15967;DHT22;15175;48.154;11.534;2023-02-28T00:25:22;-0.80;99.90
15967;DHT22;15175;48.154;11.534;2023-02-28T00:27:49;-0.80;99.90
15967;DHT22;15175;48.154;11.534;2023-02-28T00:30:19;-0.70;99.90
15967;DHT22;15175;48.154;11.534;2023-02-28T00:32:47;-0.80;99.90
15967;DHT22;15175;48.154;11.534;2023-02-28T00:35:14;-0.80;99.90
15967;DHT22;15175;48.154;11.534;2023-02-28T00:37:41;-0.80;99.90
15967;DHT22;15175;48.154;11.534;2023-02-28T00:40:10;-0.80;99.90
15967;DHT22;15175;48.154;11.534;2023-02-28T00:42:37;-0.90;99.90
15967;DHT22;15175;48.154;11.534;2023-02-28T00:45:06;-0.90;99.90
15967;DHT22;15175;48.154;11.534;2023-02-28T00:47:35;-0.90;99.90
15967;DHT22;15175;48.154;11.534;2023-02-28T00:50:02;-0.60;99.90
15967;DHT22;15175;48.154;11.534;2023-02-28T00:52:30;-0.90;99.90
15967;DHT22;15175;48.154;11.534;2023-02-28T00:54:57;-0.90;99.90
15967;DHT22;15175;48.154;11.534;2023-02-28T00:57:24;-0.90;99.90
15967;DHT22;15175;48.154;11.534;2023-02-28T00:59:52;-0.90;99.90
15967;DHT22;15175;48.154;11.534;2023-02-28T01:02:21;-0.90;99.90
15967;DHT22;15175;48.154;11.534;2023-02-28T01:04:49;-0.90;99.90
15967;DHT22;15175;48.154;11.534;2023-02-28T01:07:17;-1.00;99.90
15967;DHT22;15175;48.154;11.534;2023-02-28T01:09:46;-1.00;99.90
15967;DHT22;15175;48.154;11.534;2023-02-28T01:12:13;-1.00;99.90
15967;DHT22;15175;48.154;11.534;2023-02-28T01:14:40;-1.10;99.90
15967;DHT22;15175;48.154;11.534;2023-02-28T01:17:07;-1.10;99.90
15967;DHT22;15175;48.154;11.534;2023-02-28T01:19:35;-1.10;99.90
15967;DHT22;15175;48.154;11.534;2023-02-28T01:22:04;-1.10;99.90
15967;DHT22;15175;48.154;11.534;2023-02-28T01:24:34;-1.10;99.90
15967;DHT22;15175;48.154;11.534;2023-02-28T01:27:01;-1.00;99.90
15967;DHT22;15175;48.154;11.534;2023-02-28T01:29:28;-1.10;99.90
15967;DHT22;15175;48.154;11.534;2023-02-28T01:31:55;-1.10;99.90
15967;DHT22;15175;48.154;11.534;2023-02-28T01:34:25;-1.10;99.90
15967;DHT22;15175;48.154;11.534;2023-02-28T01:36:52;-1.10;99.90
15967;DHT22;15175;48.154;11.534;2023-02-28T01:39:20;-1.10;99.90
15967;DHT22;15175;48.154;11.534;2023-02-28T01:41:49;-1.10;99.90
15967;DHT22;15175;48.154;11.534;2023-02-28T01:44:59;-1.20;99.90
15967;DHT22;15175;48.154;11.534;2023-02-28T01:47:29;-1.20;99.90
15967;DHT22;15175;48.154;11.534;2023-02-28T01:49:58;-1.20;99.90
15967;DHT22;15175;48.154;11.534;2023-02-28T01:52:26;-1.20;99.90
15967;DHT22;15175;48.154;11.534;2023-02-28T01:54:57;-1.20;99.90
15967;DHT22;15175;48.154;11.534;2023-02-28T01:57:30;-1.30;99.90
15967;DHT22;15175;48.154;11.534;2023-02-28T02:00:06;-1.30;99.90
15967;DHT22;15175;48.154;11.534;2023-02-28T02:02:47;-1.30;99.90
15967;DHT22;15175;48.154;11.534;2023-02-28T02:05:19;-1.30;99.90
15967;DHT22;15175;48.154;11.534;2023-02-28T02:07:48;-1.30;99.90
15967;DHT22;15175;48.154;11.534;2023-02-28T02:10:19;-1.30;99.90
15967;DHT22;15175;48.154;11.534;2023-02-28T02:13:08;-1.30;99.90
15967;DHT22;15175;48.154;11.534;2023-02-28T02:15:43;-1.20;99.90
15967;DHT22;15175;48.154;11.534;2023-02-28T02:18:20;-1.20;99.90
15967;DHT22;15175;48.154;11.534;2023-02-28T02:21:21;-1.20;99.90
15967;DHT22;15175;48.154;11.534;2023-02-28T02:27:18;-1.20;99.90
15967;DHT22;15175;48.154;11.534;2023-02-28T02:33:06;-1.30;99.90
15967;DHT22;15175;48.154;11.534;2023-02-28T02:35:42;-1.40;99.90
15967;DHT22;15175;48.154;11.534;2023-02-28T02:38:18;-1.30;99.90
15967;DHT22;15175;48.154;11.534;2023-02-28T02:40:54;-1.30;99.90
15967;DHT22;15175;48.154;11.534;2023-02-28T02:43:26;-1.30;99.90
15967;DHT22;15175;48.154;11.534;2023-02-28T02:45:57;-1.30;99.90
15967;DHT22;15175;48.154;11.534;2023-02-28T02:48:30;-1.40;99.90
15967;DHT22;15175;48.154;11.534;2023-02-28T02:51:03;-1.40;99.90
15967;DHT22;15175;48.154;11.534;2023-02-28T02:53:43;-1.40;99.90
15967;DHT22;15175;48.154;11.534;2023-02-28T02:56:15;-1.50;99.90
15967;DHT22;15175;48.154;11.534;2023-02-28T02:58:45;-1.50;99.90
15967;DHT22;15175;48.154;11.534;2023-02-28T03:01:17;-1.50;99.90
15967;DHT22;15175;48.154;11.534;2023-02-28T03:03:54;-1.40;99.90
15967;DHT22;15175;48.154;11.534;2023-02-28T03:06:24;-1.50;99.90
15967;DHT22;15175;48.154;11.534;2023-02-28T03:08:51;-1.40;99.90
15967;DHT22;15175;48.154;11.534;2023-02-28T03:11:19;-1.40;99.90
15967;DHT22;15175;48.154;11.534;2023-02-28T03:14:04;-1.40;99.90
15967;DHT22;15175;48.154;11.534;2023-02-28T03:16:46;-1.50;99.90
15967;DHT22;15175;48.154;11.534;2023-02-28T03:19:38;-1.40;99.90
15967;DHT22;15175;48.154;11.534;2023-02-28T03:22:31;-1.50;99.90
15967;DHT22;15175;48.154;11.534;2023-02-28T03:25:06;-1.50;99.90
15967;DHT22;15175;48.154;11.534;2023-02-28T03:27:38;-1.50;99.90
15967;DHT22;15175;48.154;11.534;2023-02-28T03:30:10;-1.50;99.90
15967;DHT22;15175;48.154;11.534;2023-02-28T03:32:43;-1.50;99.90
15967;DHT22;15175;48.154;11.534;2023-02-28T03:35:16;-1.50;99.90
15967;DHT22;15175;48.154;11.534;2023-02-28T03:37:52;-1.50;99.90
15967;DHT22;15175;48.154;11.534;2023-02-28T03:40:23;-1.50;99.90
15967;DHT22;15175;48.154;11.534;2023-02-28T03:42:55;-1.50;99.90
15967;DHT22;15175;48.154;11.534;2023-02-28T03:45:26;-1.50;99.90
15967;DHT22;15175;48.154;11.534;2023-02-28T03:47:58;-1.50;99.90
15967;DHT22;15175;48.154;11.534;2023-02-28T03:50:32;-1.50;99.90
15967;DHT22;15175;48.154;11.534;2023-02-28T03:53:08;-1.50;99.90
15967;DHT22;15175;48.154;11.534;2023-02-28T03:55:39;-1.50;99.90
15967;DHT22;15175;48.154;11.534;2023-02-28T03:58:12;-1.40;99.90
15967;DHT22;15175;48.154;11.534;2023-02-28T04:00:45;-1.40;99.90
15967;DHT22;15175;48.154;11.534;2023-02-28T04:03:13;-1.50;99.90
15967;DHT22;15175;48.154;11.534;2023-02-28T04:05:50;-1.50;99.90
15967;DHT22;15175;48.154;11.534;2023-02-28T04:08:20;-1.50;99.90
15967;DHT22;15175;48.154;11.534;2023-02-28T04:10:51;-1.40;99.90
15967;DHT22;15175;48.154;11.534;2023-02-28T04:13:20;-1.50;99.90
15967;DHT22;15175;48.154;11.534;2023-02-28T04:15:47;-1.50;99.90
15967;DHT22;15175;48.154;11.534;2023-02-28T04:18:14;-1.40;99.90
15967;DHT22;15175;48.154;11.534;2023-02-28T04:20:41;-1.50;99.90
15967;DHT22;15175;48.154;11.534;2023-02-28T04:23:08;-1.50;99.90
15967;DHT22;15175;48.154;11.534;2023-02-28T04:25:37;-1.50;99.90
15967;DHT22;15175;48.154;11.534;2023-02-28T04:28:06;-1.50;99.90
15967;DHT22;15175;48.154;11.534;2023-02-28T04:30:33;-1.50;99.90
15967;DHT22;15175;48.154;11.534;2023-02-28T04:33:00;-1.60;99.90
15967;DHT22;15175;48.154;11.534;2023-02-28T04:35:27;-1.60;99.90
15967;DHT22;15175;48.154;11.534;2023-02-28T04:37:55;-1.60;99.90
15967;DHT22;15175;48.154;11.534;2023-02-28T04:40:23;-1.30;99.90
15967;DHT22;15175;48.154;11.534;2023-02-28T04:42:51;-1.50;99.90
15967;DHT22;15175;48.154;11.534;2023-02-28T04:45:19;-1.50;99.90
15967;DHT22;15175;48.154;11.534;2023-02-28T04:47:46;-1.50;99.90
15967;DHT22;15175;48.154;11.534;2023-02-28T04:50:13;-1.50;99.90
15967;DHT22;15175;48.154;11.534;2023-02-28T04:52:40;-1.50;99.90
15967;DHT22;15175;48.154;11.534;2023-02-28T04:55:08;-1.40;99.90
15967;DHT22;15175;48.154;11.534;2023-02-28T04:57:35;-1.40;99.90
15967;DHT22;15175;48.154;11.534;2023-02-28T05:00:05;-1.40;99.90
15967;DHT22;15175;48.154;11.534;2023-02-28T05:02:37;-1.40;99.90
15967;DHT22;15175;48.154;11.534;2023-02-28T05:05:05;-1.30;99.90
15967;DHT22;15175;48.154;11.534;2023-02-28T05:07:32;-1.30;99.90
15967;DHT22;15175;48.154;11.534;2023-02-28T05:09:59;-1.20;99.90
15967;DHT22;15175;48.154;11.534;2023-02-28T05:12:26;-1.20;99.90
15967;DHT22;15175;48.154;11.534;2023-02-28T05:14:53;-1.20;99.90
15967;DHT22;15175;48.154;11.534;2023-02-28T05:17:22;-1.20;99.90
15967;DHT22;15175;48.154;11.534;2023-02-28T05:19:49;-1.20;99.90
15967;DHT22;15175;48.154;11.534;2023-02-28T05:22:16;-1.10;99.90
15967;DHT22;15175;48.154;11.534;2023-02-28T05:24:43;-1.10;99.90
15967;DHT22;15175;48.154;11.534;2023-02-28T05:27:11;-1.10;99.90
15967;DHT22;15175;48.154;11.534;2023-02-28T05:29:38;-1.10;99.90
15967;DHT22;15175;48.154;11.534;2023-02-28T05:32:11;-1.10;99.90
15967;DHT22;15175;48.154;11.534;2023-02-28T05:34:40;-1.10;99.90
15967;DHT22;15175;48.154;11.534;2023-02-28T05:37:11;-1.10;99.90
15967;DHT22;15175;48.154;11.534;2023-02-28T05:39:38;-1.10;99.90
15967;DHT22;15175;48.154;11.534;2023-02-28T05:42:06;-1.10;99.90
15967;DHT22;15175;48.154;11.534;2023-02-28T05:44:33;-1.10;99.90
15967;DHT22;15175;48.154;11.534;2023-02-28T05:47:00;-0.90;99.90
15967;DHT22;15175;48.154;11.534;2023-02-28T05:49:28;-1.00;99.90
15967;DHT22;15175;48.154;11.534;2023-02-28T05:51:56;-1.10;99.90
15967;DHT22;15175;48.154;11.534;2023-02-28T05:54:23;-1.10;99.90
15967;DHT22;15175;48.154;11.534;2023-02-28T05:56:51;-1.10;99.90
15967;DHT22;15175;48.154;11.534;2023-02-28T05:59:18;-1.10;99.90
15967;DHT22;15175;48.154;11.534;2023-02-28T06:01:46;-1.10;99.90
15967;DHT22;15175;48.154;11.534;2023-02-28T06:04:17;-1.10;99.90
15967;DHT22;15175;48.154;11.534;2023-02-28T06:06:44;-1.10;99.90
15967;DHT22;15175;48.154;11.534;2023-02-28T06:09:13;-1.00;99.90
15967;DHT22;15175;48.154;11.534;2023-02-28T06:11:41;-1.10;99.90
15967;DHT22;15175;48.154;11.534;2023-02-28T06:14:19;-1.00;99.90
15967;DHT22;15175;48.154;11.534;2023-02-28T06:16:47;-1.00;99.90
15967;DHT22;15175;48.154;11.534;2023-02-28T06:19:14;-1.00;99.90
15967;DHT22;15175;48.154;11.534;2023-02-28T06:21:42;-1.10;99.90
15967;DHT22;15175;48.154;11.534;2023-02-28T06:24:10;-1.10;99.90
15967;DHT22;15175;48.154;11.534;2023-02-28T06:26:38;-1.10;99.90
15967;DHT22;15175;48.154;11.534;2023-02-28T06:29:06;-1.20;99.90
15967;DHT22;15175;48.154;11.534;2023-02-28T06:31:33;-1.20;99.90
15967;DHT22;15175;48.154;11.534;2023-02-28T06:34:00;-1.10;99.90
15967;DHT22;15175;48.154;11.534;2023-02-28T06:36:27;-1.10;99.90
15967;DHT22;15175;48.154;11.534;2023-02-28T06:38:54;-1.00;99.90
15967;DHT22;15175;48.154;11.534;2023-02-28T06:41:22;-1.00;99.90
15967;DHT22;15175;48.154;11.534;2023-02-28T06:43:52;-1.00;99.90
15967;DHT22;15175;48.154;11.534;2023-02-28T06:46:19;-1.00;99.90
15967;DHT22;15175;48.154;11.534;2023-02-28T06:48:47;-1.10;99.90
15967;DHT22;15175;48.154;11.534;2023-02-28T06:51:16;-1.00;99.90
15967;DHT22;15175;48.154;11.534;2023-02-28T06:53:46;-1.10;99.90
15967;DHT22;15175;48.154;11.534;2023-02-28T06:56:15;-1.10;99.90
15967;DHT22;15175;48.154;11.534;2023-02-28T06:58:45;-1.10;99.90
15967;DHT22;15175;48.154;11.534;2023-02-28T07:01:14;-1.10;99.90
15967;DHT22;15175;48.154;11.534;2023-02-28T07:03:41;-1.10;99.90
15967;DHT22;15175;48.154;11.534;2023-02-28T07:06:08;-1.10;99.90
15967;DHT22;15175;48.154;11.534;2023-02-28T07:08:36;-1.10;99.90
15967;DHT22;15175;48.154;11.534;2023-02-28T07:11:03;-1.00;99.90
15967;DHT22;15175;48.154;11.534;2023-02-28T07:13:30;-1.00;99.90
15967;DHT22;15175;48.154;11.534;2023-02-28T07:15:59;-1.00;99.90
15967;DHT22;15175;48.154;11.534;2023-02-28T07:18:28;-0.90;99.90
15967;DHT22;15175;48.154;11.534;2023-02-28T07:20:55;-0.90;99.90
15967;DHT22;15175;48.154;11.534;2023-02-28T07:23:22;-0.90;99.90
15967;DHT22;15175;48.154;11.534;2023-02-28T07:25:50;-0.90;99.90
15967;DHT22;15175;48.154;11.534;2023-02-28T07:28:18;-1.10;99.90
15967;DHT22;15175;48.154;11.534;2023-02-28T07:30:45;-1.10;99.90
15967;DHT22;15175;48.154;11.534;2023-02-28T07:33:12;-1.10;99.90
15967;DHT22;15175;48.154;11.534;2023-02-28T07:35:41;-1.10;99.90
15967;DHT22;15175;48.154;11.534;2023-02-28T07:38:08;-1.00;99.90
15967;DHT22;15175;48.154;11.534;2023-02-28T07:40:36;-1.00;99.90
15967;DHT22;15175;48.154;11.534;2023-02-28T07:43:03;-0.90;99.90
15967;DHT22;15175;48.154;11.534;2023-02-28T07:45:31;-0.90;99.90
15967;DHT22;15175;48.154;11.534;2023-02-28T07:48:00;-0.90;99.90
15967;DHT22;15175;48.154;11.534;2023-02-28T07:50:27;-0.90;99.90
15967;DHT22;15175;48.154;11.534;2023-02-28T07:52:58;-0.80;99.90
15967;DHT22;15175;48.154;11.534;2023-02-28T07:55:25;-0.80;99.90
15967;DHT22;15175;48.154;11.534;2023-02-28T07:57:53;-0.80;99.90
15967;DHT22;15175;48.154;11.534;2023-02-28T08:00:21;-0.80;99.90
15967;DHT22;15175;48.154;11.534;2023-02-28T08:02:49;-0.90;99.90
15967;DHT22;15175;48.154;11.534;2023-02-28T08:05:16;-0.90;99.90
15967;DHT22;15175;48.154;11.534;2023-02-28T08:07:43;-0.90;99.90
15967;DHT22;15175;48.154;11.534;2023-02-28T08:10:12;-0.90;99.90
15967;DHT22;15175;48.154;11.534;2023-02-28T08:12:39;-0.90;99.90
15967;DHT22;15175;48.154;11.534;2023-02-28T08:15:08;-0.90;99.90
15967;DHT22;15175;48.154;11.534;2023-02-28T08:17:35;-0.90;99.90
15967;DHT22;15175;48.154;11.534;2023-02-28T08:20:02;-0.80;99.90
15967;DHT22;15175;48.154;11.534;2023-02-28T08:22:29;-0.70;99.90
15967;DHT22;15175;48.154;11.534;2023-02-28T08:24:57;-0.70;99.90
15967;DHT22;15175;48.154;11.534;2023-02-28T08:27:25;-0.50;99.90
15967;DHT22;15175;48.154;11.534;2023-02-28T08:29:52;-0.80;99.90
15967;DHT22;15175;48.154;11.534;2023-02-28T08:32:19;-0.80;99.90
15967;DHT22;15175;48.154;11.534;2023-02-28T08:34:47;-0.80;99.90
15967;DHT22;15175;48.154;11.534;2023-02-28T08:37:14;-0.80;99.90
15967;DHT22;15175;48.154;11.534;2023-02-28T08:39:41;-0.80;99.90
15967;DHT22;15175;48.154;11.534;2023-02-28T08:42:08;-0.80;99.90
15967;DHT22;15175;48.154;11.534;2023-02-28T08:44:36;-0.70;99.90
15967;DHT22;15175;48.154;11.534;2023-02-28T08:47:03;-0.70;99.90
15967;DHT22;15175;48.154;11.534;2023-02-28T08:49:31;-0.60;99.90
15967;DHT22;15175;48.154;11.534;2023-02-28T08:51:58;-0.70;99.90
15967;DHT22;15175;48.154;11.534;2023-02-28T08:54:25;-0.70;99.90
15967;DHT22;15175;48.154;11.534;2023-02-28T08:56:54;-0.70;99.90
15967;DHT22;15175;48.154;11.534;2023-02-28T08:59:21;-0.70;99.90
15967;DHT22;15175;48.154;11.534;2023-02-28T09:01:50;-0.80;99.90
15967;DHT22;15175;48.154;11.534;2023-02-28T09:04:17;-0.60;99.90
15967;DHT22;15175;48.154;11.534;2023-02-28T09:06:44;-0.60;99.90
15967;DHT22;15175;48.154;11.534;2023-02-28T09:09:11;-0.60;99.90
15967;DHT22;15175;48.154;11.534;2023-02-28T09:11:38;-0.70;99.90
15967;DHT22;15175;48.154;11.534;2023-02-28T09:14:05;-0.50;99.90
15967;DHT22;15175;48.154;11.534;2023-02-28T09:16:34;-0.60;99.90
15967;DHT22;15175;48.154;11.534;2023-02-28T09:19:02;-0.50;99.90
15967;DHT22;15175;48.154;11.534;2023-02-28T09:21:30;-0.50;99.90
15967;DHT22;15175;48.154;11.534;2023-02-28T09:23:57;-0.50;99.90
15967;DHT22;15175;48.154;11.534;2023-02-28T09:26:26;-0.40;99.90
15967;DHT22;15175;48.154;11.534;2023-02-28T09:28:54;-0.50;99.90
15967;DHT22;15175;48.154;11.534;2023-02-28T09:31:23;-0.50;99.90
15967;DHT22;15175;48.154;11.534;2023-02-28T09:33:51;-0.40;99.90
15967;DHT22;15175;48.154;11.534;2023-02-28T09:36:21;-0.50;99.90
15967;DHT22;15175;48.154;11.534;2023-02-28T09:38:49;-0.60;99.90
15967;DHT22;15175;48.154;11.534;2023-02-28T09:41:21;-0.60;99.90
15967;DHT22;15175;48.154;11.534;2023-02-28T09:43:51;-0.60;99.90
15967;DHT22;15175;48.154;11.534;2023-02-28T09:46:28;-0.60;99.90
15967;DHT22;15175;48.154;11.534;2023-02-28T09:48:57;-0.60;99.90
15967;DHT22;15175;48.154;11.534;2023-02-28T09:51:39;-0.50;99.90
15967;DHT22;15175;48.154;11.534;2023-02-28T09:54:14;-0.50;99.90
15967;DHT22;15175;48.154;11.534;2023-02-28T09:56:47;-0.40;99.90
15967;DHT22;15175;48.154;11.534;2023-02-28T09:59:37;-0.50;99.90
15967;DHT22;15175;48.154;11.534;2023-02-28T10:02:17;-0.50;99.90
15967;DHT22;15175;48.154;11.534;2023-02-28T10:04:50;-0.50;99.90
15967;DHT22;15175;48.154;11.534;2023-02-28T10:07:36;-0.60;99.90
15967;DHT22;15175;48.154;11.534;2023-02-28T10:10:13;-0.40;99.90
15967;DHT22;15175;48.154;11.534;2023-02-28T10:12:49;-0.30;99.90
15967;DHT22;15175;48.154;11.534;2023-02-28T10:15:19;-0.20;99.90
15967;DHT22;15175;48.154;11.534;2023-02-28T10:17:49;-0.20;99.90
15967;DHT22;15175;48.154;11.534;2023-02-28T10:20:21;0.00;99.90
15967;DHT22;15175;48.154;11.534;2023-02-28T10:23:00;0.10;99.90
15967;DHT22;15175;48.154;11.534;2023-02-28T10:25:34;0.20;99.90
15967;DHT22;15175;48.154;11.534;2023-02-28T10:28:09;0.20;99.90
15967;DHT22;15175;48.154;11.534;2023-02-28T10:30:39;0.30;99.90
15967;DHT22;15175;48.154;11.534;2023-02-28T10:33:15;0.40;99.90
15967;DHT22;15175;48.154;11.534;2023-02-28T10:35:44;0.40;99.90
15967;DHT22;15175;48.154;11.534;2023-02-28T10:38:17;0.50;99.90
15967;DHT22;15175;48.154;11.534;2023-02-28T10:40:44;0.60;99.90
15967;DHT22;15175;48.154;11.534;2023-02-28T10:43:22;0.70;99.90
15967;DHT22;15175;48.154;11.534;2023-02-28T10:45:57;0.70;99.90
15967;DHT22;15175;48.154;11.534;2023-02-28T10:50:56;0.60;99.90
15967;DHT22;15175;48.154;11.534;2023-02-28T10:53:36;0.60;99.90
15967;DHT22;15175;48.154;11.534;2023-02-28T10:56:06;0.50;99.90
15967;DHT22;15175;48.154;11.534;2023-02-28T10:58:47;0.50;99.90
15967;DHT22;15175;48.154;11.534;2023-02-28T11:01:18;0.60;99.90
15967;DHT22;15175;48.154;11.534;2023-02-28T11:03:46;0.60;99.90
15967;DHT22;15175;48.154;11.534;2023-02-28T11:06:17;0.70;99.90
15967;DHT22;15175;48.154;11.534;2023-02-28T11:08:48;0.70;99.90
15967;DHT22;15175;48.154;11.534;2023-02-28T11:11:16;0.80;99.90
15967;DHT22;15175;48.154;11.534;2023-02-28T11:13:45;0.90;99.90
15967;DHT22;15175;48.154;11.534;2023-02-28T11:16:14;0.90;99.90
15967;DHT22;15175;48.154;11.534;2023-02-28T11:18:46;0.90;99.90
15967;DHT22;15175;48.154;11.534;2023-02-28T11:21:21;0.90;99.90
15967;DHT22;15175;48.154;11.534;2023-02-28T11:23:52;1.00;99.90
15967;DHT22;15175;48.154;11.534;2023-02-28T11:26:39;1.00;99.90
15967;DHT22;15175;48.154;11.534;2023-02-28T11:29:18;1.10;99.90
15967;DHT22;15175;48.154;11.534;2023-02-28T11:32:05;1.20;99.90
15967;DHT22;15175;48.154;11.534;2023-02-28T11:34:35;1.10;99.90
15967;DHT22;15175;48.154;11.534;2023-02-28T11:37:03;0.90;99.90
15967;DHT22;15175;48.154;11.534;2023-02-28T11:39:34;0.90;99.90
15967;DHT22;15175;48.154;11.534;2023-02-28T11:42:11;1.00;99.90
15967;DHT22;15175;48.154;11.534;2023-02-28T11:44:51;1.10;99.90
15967;DHT22;15175;48.154;11.534;2023-02-28T11:47:28;1.20;99.90
15967;DHT22;15175;48.154;11.534;2023-02-28T11:50:13;1.30;99.90
15967;DHT22;15175;48.154;11.534;2023-02-28T11:52:47;1.20;99.90
15967;DHT22;15175;48.154;11.534;2023-02-28T11:55:21;1.20;99.90
15967;DHT22;15175;48.154;11.534;2023-02-28T11:58:05;1.30;99.90
15967;DHT22;15175;48.154;11.534;2023-02-28T12:00:50;1.40;99.90
15967;DHT22;15175;48.154;11.534;2023-02-28T12:03:28;1.40;99.90
15967;DHT22;15175;48.154;11.534;2023-02-28T12:06:02;1.40;99.90
15967;DHT22;15175;48.154;11.534;2023-02-28T12:08:47;1.40;99.90
15967;DHT22;15175;48.154;11.534;2023-02-28T12:11:27;1.50;99.90
15967;DHT22;15175;48.154;11.534;2023-02-28T12:14:25;1.50;99.90
15967;DHT22;15175;48.154;11.534;2023-02-28T12:17:03;1.80;99.90
15967;DHT22;15175;48.154;11.534;2023-02-28T12:19:42;1.90;99.90
15967;DHT22;15175;48.154;11.534;2023-02-28T12:22:27;2.00;99.90
15967;DHT22;15175;48.154;11.534;2023-02-28T12:25:22;2.10;99.90
15967;DHT22;15175;48.154;11.534;2023-02-28T12:27:52;2.10;99.90
15967;DHT22;15175;48.154;11.534;2023-02-28T12:30:23;2.20;99.90
15967;DHT22;15175;48.154;11.534;2023-02-28T12:32:54;2.20;99.90
15967;DHT22;15175;48.154;11.534;2023-02-28T12:35:26;2.20;99.90
15967;DHT22;15175;48.154;11.534;2023-02-28T12:37:58;2.20;99.90
15967;DHT22;15175;48.154;11.534;2023-02-28T12:40:34;2.30;99.90
15967;DHT22;15175;48.154;11.534;2023-02-28T12:43:09;2.50;99.90
15967;DHT22;15175;48.154;11.534;2023-02-28T12:45:41;2.60;99.90
15967;DHT22;15175;48.154;11.534;2023-02-28T12:48:15;2.70;99.90
15967;DHT22;15175;48.154;11.534;2023-02-28T12:50:45;2.60;99.90
15967;DHT22;15175;48.154;11.534;2023-02-28T12:53:21;2.80;99.90
15967;DHT22;15175;48.154;11.534;2023-02-28T12:55:57;2.90;99.90
15967;DHT22;15175;48.154;11.534;2023-02-28T12:58:35;3.00;99.90
15967;DHT22;15175;48.154;11.534;2023-02-28T13:01:15;3.20;99.90
15967;DHT22;15175;48.154;11.534;2023-02-28T13:04:27;3.00;99.90
15967;DHT22;15175;48.154;11.534;2023-02-28T13:07:23;3.10;99.90
15967;DHT22;15175;48.154;11.534;2023-02-28T13:09:58;3.20;99.90
15967;DHT22;15175;48.154;11.534;2023-02-28T13:12:26;3.20;99.90
15967;DHT22;15175;48.154;11.534;2023-02-28T13:15:05;3.20;99.90
15967;DHT22;15175;48.154;11.534;2023-02-28T13:17:39;3.30;99.90
15967;DHT22;15175;48.154;11.534;2023-02-28T13:20:16;3.30;99.90
15967;DHT22;15175;48.154;11.534;2023-02-28T13:22:46;3.20;99.90
15967;DHT22;15175;48.154;11.534;2023-02-28T13:34:41;3.40;99.90
15967;DHT22;15175;48.154;11.534;2023-02-28T13:37:35;3.60;99.90
15967;DHT22;15175;48.154;11.534;2023-02-28T13:40:29;3.80;99.90
15967;DHT22;15175;48.154;11.534;2023-02-28T13:43:03;3.80;99.90
15967;DHT22;15175;48.154;11.534;2023-02-28T13:45:34;3.70;99.90
15967;DHT22;15175;48.154;11.534;2023-02-28T13:48:16;3.70;99.90
15967;DHT22;15175;48.154;11.534;2023-02-28T13:50:44;3.60;99.90
15967;DHT22;15175;48.154;11.534;2023-02-28T13:53:42;3.80;99.90
15967;DHT22;15175;48.154;11.534;2023-02-28T13:56:32;3.90;99.90
15967;DHT22;15175;48.154;11.534;2023-02-28T13:59:12;3.80;99.90
15967;DHT22;15175;48.154;11.534;2023-02-28T14:01:51;3.80;99.90
15967;DHT22;15175;48.154;11.534;2023-02-28T14:04:53;3.80;99.90
15967;DHT22;15175;48.154;11.534;2023-02-28T14:07:39;3.70;99.90
15967;DHT22;15175;48.154;11.534;2023-02-28T14:10:25;3.70;99.90
15967;DHT22;15175;48.154;11.534;2023-02-28T14:13:01;3.70;99.90
15967;DHT22;15175;48.154;11.534;2023-02-28T14:15:57;3.50;99.90
15967;DHT22;15175;48.154;11.534;2023-02-28T14:18:29;3.50;99.90
15967;DHT22;15175;48.154;11.534;2023-02-28T14:21:17;3.60;99.90
15967;DHT22;15175;48.154;11.534;2023-02-28T14:24:28;3.60;99.90
15967;DHT22;15175;48.154;11.534;2023-02-28T14:27:15;3.80;99.90
15967;DHT22;15175;48.154;11.534;2023-02-28T14:30:15;3.60;99.90
15967;DHT22;15175;48.154;11.534;2023-02-28T14:32:54;3.70;99.90
15967;DHT22;15175;48.154;11.534;2023-02-28T14:35:42;3.70;99.90
15967;DHT22;15175;48.154;11.534;2023-02-28T14:38:19;3.70;99.90
15967;DHT22;15175;48.154;11.534;2023-02-28T14:40:47;3.60;99.90
15967;DHT22;15175;48.154;11.534;2023-02-28T14:43:21;3.60;99.90
15967;DHT22;15175;48.154;11.534;2023-02-28T14:45:50;3.60;99.90
15967;DHT22;15175;48.154;11.534;2023-02-28T14:48:19;3.50;99.90
15967;DHT22;15175;48.154;11.534;2023-02-28T14:50:49;3.50;99.90
15967;DHT22;15175;48.154;11.534;2023-02-28T14:53:21;3.40;99.90
15967;DHT22;15175;48.154;11.534;2023-02-28T14:55:49;3.40;99.90
15967;DHT22;15175;48.154;11.534;2023-02-28T14:58:26;3.30;99.90
15967;DHT22;15175;48.154;11.534;2023-02-28T15:00:55;3.40;99.90
15967;DHT22;15175;48.154;11.534;2023-02-28T15:03:27;3.40;99.90
15967;DHT22;15175;48.154;11.534;2023-02-28T15:05:58;3.50;99.90
15967;DHT22;15175;48.154;11.534;2023-02-28T15:08:27;3.40;99.90
15967;DHT22;15175;48.154;11.534;2023-02-28T15:10:57;3.40;99.90
15967;DHT22;15175;48.154;11.534;2023-02-28T15:13:36;3.40;99.90
15967;DHT22;15175;48.154;11.534;2023-02-28T15:16:04;3.40;99.90
15967;DHT22;15175;48.154;11.534;2023-02-28T15:18:43;3.50;99.90
15967;DHT22;15175;48.154;11.534;2023-02-28T15:21:15;3.50;99.90
15967;DHT22;15175;48.154;11.534;2023-02-28T15:23:46;3.50;99.90
15967;DHT22;15175;48.154;11.534;2023-02-28T15:26:16;3.50;99.90
15967;DHT22;15175;48.154;11.534;2023-02-28T15:28:43;3.50;99.90
15967;DHT22;15175;48.154;11.534;2023-02-28T15:31:21;3.50;99.90
15967;DHT22;15175;48.154;11.534;2023-02-28T15:33:54;3.50;99.90
15967;DHT22;15175;48.154;11.534;2023-02-28T15:36:25;3.60;99.90
15967;DHT22;15175;48.154;11.534;2023-02-28T15:38:55;3.50;99.90
15967;DHT22;15175;48.154;11.534;2023-02-28T15:41:25;3.50;99.90
15967;DHT22;15175;48.154;11.534;2023-02-28T15:44:14;3.50;99.90
15967;DHT22;15175;48.154;11.534;2023-02-28T15:46:43;3.50;99.90
15967;DHT22;15175;48.154;11.534;2023-02-28T15:49:19;3.50;99.90
15967;DHT22;15175;48.154;11.534;2023-02-28T15:51:48;3.50;99.90
15967;DHT22;15175;48.154;11.534;2023-02-28T15:54:20;3.50;99.90
15967;DHT22;15175;48.154;11.534;2023-02-28T15:56:51;3.50;99.90
15967;DHT22;15175;48.154;11.534;2023-02-28T15:59:21;3.50;99.90
15967;DHT22;15175;48.154;11.534;2023-02-28T16:02:04;3.50;99.90
15967;DHT22;15175;48.154;11.534;2023-02-28T16:04:55;3.50;99.90
15967;DHT22;15175;48.154;11.534;2023-02-28T16:07:23;3.60;99.90
15967;DHT22;15175;48.154;11.534;2023-02-28T16:09:52;3.60;99.90